Time;durP1;ratioP1;P1;durP2;ratioP2;P2;SDS_P1;SDS_P2;PMS_P1;PMS_P2;Temp;Humidity;BMP_temperature;BMP_pressure;BME280_temperature;BME280_humidity;BME280_pressure;Samples;Min_cycle;Max_cycle;Signal;HPM_P1;HPM_P2
2023/02/01 00:02:55;;;;;;;31.33;4.70;;;7.30;99.90;;;;;;6247520;22;38741;-82
2023/02/01 00:05:46;;;;;;;25.90;4.63;;;7.40;99.90;;;;;;6192229;22;48635;-82
2023/02/01 00:08:42;;;;;;;;;;;7.40;99.90;;;;;;6216414;22;38865;-81
2023/02/01 00:14:09;;;;;;;28.23;4.47;;;7.40;99.90;;;;;;6272720;22;20077;-81
2023/02/01 00:16:48;;;;;;;22.70;3.77;;;7.30;99.90;;;;;;6302276;22;49912;-82
2023/02/01 00:21:59;;;;;;;27.30;3.87;;;7.20;99.90;;;;;;6272186;22;20010;-82
2023/02/01 00:24:54;;;;;;;23.70;3.80;;;7.20;99.90;;;;;;6239395;22;50401;-81
2023/02/01 00:27:32;;;;;;;23.83;4.53;;;7.20;99.90;;;;;;6290911;22;39511;-81
2023/02/01 00:30:23;;;;;;;23.33;4.65;;;7.30;99.90;;;;;;6300593;22;40376;-81
2023/02/01 00:32:55;;;;;;;23.53;5.03;;;7.40;99.90;;;;;;6255393;22;48643;-81
2023/02/01 00:35:51;;;;;;;31.37;4.10;;;7.50;99.90;;;;;;6268952;22;38696;-82
2023/02/01 00:38:45;;;;;;;21.23;5.37;;;7.50;99.90;;;;;;6273583;22;39969;-81
2023/02/01 00:41:50;;;;;;;26.53;4.10;;;7.30;99.90;;;;;;6219980;22;39433;-82
2023/02/01 00:44:37;;;;;;;24.40;4.33;;;7.50;99.90;;;;;;6239541;22;39747;-82
2023/02/01 00:47:45;;;;;;;24.23;5.53;;;7.50;99.90;;;;;;6292948;22;38512;-82
2023/02/01 00:50:20;;;;;;;20.97;4.00;;;7.40;99.90;;;;;;6246643;22;50079;-81
2023/02/01 00:53:49;;;;;;;30.07;4.27;;;7.30;99.90;;;;;;6293752;22;40519;-82
2023/02/01 00:56:55;;;;;;;23.77;4.13;;;7.30;99.90;;;;;;6279563;22;39258;-80
2023/02/01 00:59:35;;;;;;;27.50;4.07;;;7.30;99.90;;;;;;6284418;22;39975;-82
2023/02/01 01:02:42;;;;;;;28.57;4.23;;;7.30;99.90;;;;;;6270411;22;40215;-81
2023/02/01 01:05:24;;;;;;;25.03;4.23;;;7.40;99.90;;;;;;6273144;22;40371;-82
2023/02/01 01:07:57;;;;;;;35.77;4.40;;;7.30;99.90;;;;;;6290713;22;38771;-82
2023/02/01 01:10:44;;;;;;;20.57;4.67;;;7.30;99.90;;;;;;6303975;22;38744;-81
2023/02/01 01:13:51;;;;;;;27.23;3.97;;;7.30;99.90;;;;;;6294386;22;39931;-82
2023/02/01 01:16:55;;;;;;;29.07;4.07;;;7.30;99.90;;;;;;6294000;22;38557;-81
2023/02/01 01:19:45;;;;;;;27.90;4.23;;;7.40;99.90;;;;;;6186600;22;50076;-82
2023/02/01 01:22:23;;;;;;;38.33;5.67;;;7.30;99.90;;;;;;6272499;22;38744;-81
2023/02/01 01:25:42;;;;;;;32.10;6.43;;;7.30;99.90;;;;;;6295269;22;40192;-82
2023/02/01 01:28:38;;;;;;;29.53;4.60;;;7.30;99.90;;;;;;6307102;22;40148;-82
2023/02/01 01:31:13;;;;;;;29.93;5.17;;;7.40;99.90;;;;;;6226837;22;38942;-80
2023/02/01 01:33:54;;;;;;;33.43;5.23;;;7.50;99.90;;;;;;6326445;22;38170;-82
2023/02/01 01:36:32;;;;;;;30.33;5.77;;;7.60;99.90;;;;;;6201332;22;39606;-81
2023/02/01 01:39:18;;;;;;;47.37;6.83;;;7.60;99.90;;;;;;6207423;22;40836;-81
2023/02/01 01:42:06;;;;;;;30.07;5.90;;;7.50;99.90;;;;;;6195315;22;39034;-81
2023/02/01 01:45:03;;;;;;;25.13;4.67;;;7.50;99.90;;;;;;6189273;22;49119;-82
2023/02/01 01:47:44;;;;;;;25.23;4.30;;;7.60;99.90;;;;;;6193945;23;39864;-82
2023/02/01 01:50:41;;;;;;;37.67;5.17;;;7.50;99.90;;;;;;6115554;23;40281;-82
2023/02/01 01:53:27;;;;;;;30.73;4.80;;;7.50;99.90;;;;;;6194456;22;38798;-83
2023/02/01 01:56:02;;;;;;;25.70;5.30;;;7.50;99.90;;;;;;6212509;22;38352;-80
2023/02/01 01:58:54;;;;;;;29.97;4.90;;;7.50;99.90;;;;;;6144282;22;39934;-83
2023/02/01 03:05:51;;;;;;;22.33;3.93;;;7.60;99.90;;;;;;6214047;22;21171;-79
2023/02/01 04:03:04;;;;;;;25.50;4.55;;;7.30;99.90;;;;;;6273924;22;20019;-82
2023/02/01 04:06:03;;;;;;;31.63;5.23;;;7.30;99.90;;;;;;6305413;22;38737;-82
2023/02/01 04:24:31;;;;;;;25.27;4.30;;;7.30;99.90;;;;;;6292098;22;20025;-83
2023/02/01 04:59:24;;;;;;;25.98;4.88;;;7.80;99.90;;;;;;6310571;22;20063;31
2023/02/01 05:02:00;;;;;;;27.27;5.03;;;7.80;99.90;;;;;;6279580;22;39361;31
2023/02/01 06:30:04;;;;;;;28.77;4.97;;;7.20;99.90;;;;;;6275231;22;20020;31
2023/02/01 06:42:54;;;;;;;26.20;5.43;;;7.30;99.90;;;;;;6278045;22;20068;-83
2023/02/01 07:18:23;;;;;;;38.90;5.30;;;7.10;99.90;;;;;;6351390;22;20059;31
2023/02/01 07:26:13;;;;;;;35.17;5.20;;;7.10;99.90;;;;;;6295291;22;20030;-83
2023/02/01 07:36:38;;;;;;;36.73;5.10;;;7.10;99.90;;;;;;6304463;22;20018;-83
2023/02/01 07:46:52;;;;;;;31.33;4.60;;;7.20;99.90;;;;;;6314808;22;20015;-82
2023/02/01 07:52:03;;;;;;;30.60;4.53;;;7.20;99.90;;;;;;6343953;22;20006;-81
2023/02/01 07:54:30;;;;;;;34.03;5.63;;;7.30;99.90;;;;;;6273192;22;48172;-82
2023/02/01 08:20:22;;;;;;;30.70;5.03;;;7.60;99.90;;;;;;6342310;22;20030;-83
2023/02/01 08:35:37;;;;;;;32.90;4.90;;;7.70;99.90;;;;;;6359376;22;19918;-83
2023/02/01 08:38:29;;;;;;;27.43;4.73;;;7.70;99.90;;;;;;6376512;22;37205;-82
2023/02/01 08:40:55;;;;;;;32.37;5.00;;;7.70;99.90;;;;;;6373044;22;38891;-83
2023/02/01 08:48:34;;;;;;;25.00;4.40;;;7.80;99.90;;;;;;6288665;22;20027;-83
2023/02/01 08:51:09;;;;;;;35.70;6.47;;;7.90;99.90;;;;;;6313276;22;38576;-82
2023/02/01 09:24:40;;;;;;;24.33;4.40;;;8.40;99.90;;;;;;6295700;22;20954;-83
2023/02/01 10:15:35;;;;;;;25.57;4.47;;;8.90;99.90;;;;;;6326835;22;20007;-83
2023/02/01 10:43:01;;;;;;;29.40;5.73;;;8.90;99.90;;;;;;6215539;22;20720;-77
2023/02/01 10:48:32;;;;;;;28.90;4.40;;;9.10;99.90;;;;;;6303765;22;20008;-83
2023/02/01 11:09:09;;;;;;;29.87;4.50;;;9.20;99.90;;;;;;6221839;22;21018;-80
2023/02/01 11:23:21;;;;;;;31.40;4.60;;;9.20;99.90;;;;;;6227619;22;20013;-81
2023/02/01 11:28:37;;;;;;;32.20;5.13;;;9.20;99.90;;;;;;6253098;22;20076;-84
2023/02/01 11:59:54;;;;;;;26.00;4.60;;;9.30;99.90;;;;;;6207357;22;20009;-81
2023/02/01 12:39:40;;;;;;;28.33;4.27;;;9.60;99.90;;;;;;6222911;22;20025;-82
2023/02/01 12:57:46;;;;;;;32.53;6.37;;;9.50;99.90;;;;;;6243361;22;20017;-84
2023/02/01 13:13:23;;;;;;;34.90;5.17;;;9.60;99.90;;;;;;6232384;22;20005;-82
2023/02/01 13:18:37;;;;;;;31.57;4.60;;;9.40;99.90;;;;;;6229749;22;20026;-81
2023/02/01 13:41:49;;;;;;;26.50;4.80;;;9.60;99.90;;;;;;6244829;22;20025;-83
2023/02/01 13:56:03;;;;;;;27.07;4.67;;;9.30;99.90;;;;;;6258718;22;20021;31
2023/02/01 13:58:56;;;;;;;34.40;5.45;;;9.40;99.90;;;;;;6215303;22;47764;-82
2023/02/01 14:26:16;;;;;;;39.40;6.50;;;9.50;99.90;;;;;;6255633;22;20016;-81
2023/02/01 14:47:25;;;;;;;23.17;4.37;;;9.40;99.90;;;;;;6294052;22;20024;-82
2023/02/01 14:50:04;;;;;;;26.33;5.53;;;9.40;99.90;;;;;;6273052;22;48621;-82
2023/02/01 14:52:46;;;;;;;22.07;3.87;;;9.50;99.90;;;;;;6272839;22;47243;-83
2023/02/01 14:55:25;;;;;;;28.80;5.55;;;9.50;99.90;;;;;;6276660;22;38026;-82
2023/02/01 14:57:54;;;;;;;29.13;4.67;;;9.40;99.90;;;;;;6277407;22;38805;-81
2023/02/01 15:00:23;;;;;;;27.93;3.80;;;9.40;99.90;;;;;;6273786;22;39447;-83
2023/02/01 15:02:51;;;;;;;20.03;4.03;;;9.40;99.90;;;;;;6277511;22;38476;-82
2023/02/01 15:05:32;;;;;;;24.93;4.63;;;9.50;99.90;;;;;;6276764;22;37537;-83
2023/02/01 15:08:07;;;;;;;27.07;4.43;;;9.50;99.90;;;;;;6277200;22;37724;-83
2023/02/01 15:10:43;;;;;;;23.87;4.63;;;9.40;99.90;;;;;;6274172;22;47953;-83
2023/02/01 15:13:23;;;;;;;26.63;4.83;;;9.50;99.90;;;;;;6276058;22;38616;-83
2023/02/01 15:16:15;;;;;;;28.87;4.90;;;9.50;99.90;;;;;;6278287;22;37986;-81
2023/02/01 15:18:41;;;;;;;26.30;4.10;;;9.50;99.90;;;;;;6277641;22;50286;-82
2023/02/01 15:21:19;;;;;;;28.73;4.40;;;9.40;99.90;;;;;;6278303;22;39890;-81
2023/02/01 15:23:48;;;;;;;28.47;5.50;;;9.40;99.90;;;;;;6277977;22;38617;-82
2023/02/01 15:26:25;;;;;;;28.57;4.43;;;9.40;99.90;;;;;;6277708;22;39205;-81
2023/02/01 15:28:52;;;;;;;22.37;4.60;;;9.40;99.90;;;;;;6277792;22;37520;-82
2023/02/01 15:31:33;;;;;;;28.30;4.40;;;9.40;99.90;;;;;;6273904;22;39006;-82
2023/02/01 15:33:59;;;;;;;30.73;5.00;;;9.30;99.90;;;;;;6277015;22;38504;-82
2023/02/01 15:36:27;;;;;;;31.40;4.53;;;9.40;99.90;;;;;;6274366;22;37900;-82
2023/02/01 15:39:13;;;;;;;25.30;5.77;;;9.40;99.90;;;;;;6278259;22;37308;-83
2023/02/01 15:41:42;;;;;;;21.07;5.27;;;9.40;99.90;;;;;;6275487;22;48088;-82
2023/02/01 15:44:27;;;;;;;24.57;4.83;;;9.40;99.90;;;;;;6275888;22;38970;-82
2023/02/01 15:46:53;;;;;;;29.10;4.93;;;9.40;99.90;;;;;;6276642;22;38011;-82
2023/02/01 15:49:31;;;;;;;20.20;4.80;;;9.40;99.90;;;;;;6276333;22;37171;-83
2023/02/01 15:52:00;;;;;;;29.13;4.93;;;9.30;99.90;;;;;;6277442;22;39006;-82
2023/02/01 15:55:07;;;;;;;29.47;4.50;;;9.40;99.90;;;;;;6302347;22;39881;-82
2023/02/01 15:57:43;;;;;;;34.03;4.67;;;9.30;99.90;;;;;;6279846;22;49616;-82
2023/02/01 16:00:30;;;;;;;22.80;4.00;;;9.30;99.90;;;;;;6289656;22;36682;-82
2023/02/01 16:03:04;;;;;;;30.33;4.87;;;9.30;99.90;;;;;;6305328;22;48715;-81
2023/02/01 16:05:38;;;;;;;33.53;4.83;;;9.30;99.90;;;;;;6280271;22;47948;-82
2023/02/01 16:08:21;;;;;;;33.47;4.63;;;9.30;99.90;;;;;;6324822;22;38368;-82
2023/02/01 16:11:00;;;;;;;26.70;4.40;;;9.30;99.90;;;;;;6301286;22;38717;-81
2023/02/01 16:13:41;;;;;;;26.10;4.63;;;9.30;99.90;;;;;;6294163;22;39329;-81
2023/02/01 16:16:13;;;;;;;35.73;5.33;;;9.30;99.90;;;;;;6328450;22;39585;-83
2023/02/01 16:18:44;;;;;;;36.67;5.10;;;9.30;99.90;;;;;;6338028;22;38340;-82
2023/02/01 16:21:12;;;;;;;22.77;4.17;;;9.30;99.90;;;;;;6280675;22;36809;-83
2023/02/01 16:23:40;;;;;;;21.33;4.53;;;9.30;99.90;;;;;;6323128;22;39663;-82
2023/02/01 16:26:35;;;;;;;30.67;4.87;;;9.30;99.90;;;;;;6300919;22;38858;-82
2023/02/01 16:31:41;;;;;;;25.27;4.40;;;9.30;99.90;;;;;;6277403;22;19991;-81
2023/02/01 16:34:14;;;;;;;23.27;4.87;;;9.30;99.90;;;;;;6273231;22;39568;-82
2023/02/01 16:36:43;;;;;;;33.33;4.93;;;9.30;99.90;;;;;;6277664;22;38167;-82
2023/02/01 16:39:24;;;;;;;27.40;5.13;;;9.30;99.90;;;;;;6275817;22;38945;-82
2023/02/01 16:42:12;;;;;;;26.67;4.10;;;9.20;99.90;;;;;;6303058;22;38449;-82
2023/02/01 16:44:43;;;;;;;33.53;5.53;;;9.30;99.90;;;;;;6302710;22;47110;-82
2023/02/01 16:47:16;;;;;;;23.03;5.07;;;9.30;99.90;;;;;;6275525;22;38569;-83
2023/02/01 16:49:43;;;;;;;25.40;5.07;;;9.20;99.90;;;;;;6273345;22;36461;-82
2023/02/01 16:52:24;;;;;;;30.50;4.70;;;9.20;99.90;;;;;;6278733;22;37707;-81
2023/02/01 16:54:59;;;;;;;28.70;5.93;;;9.20;99.90;;;;;;6341282;22;38910;-82
2023/02/01 16:57:27;;;;;;;27.10;4.43;;;9.10;99.90;;;;;;6339817;22;38484;-82
2023/02/01 16:59:54;;;;;;;32.10;5.00;;;9.10;99.90;;;;;;6340635;22;37699;-82
2023/02/01 17:02:21;;;;;;;35.80;4.80;;;9.00;99.90;;;;;;6341932;22;38685;-82
2023/02/01 17:04:54;;;;;;;33.17;6.27;;;9.00;99.90;;;;;;6341173;22;37618;-82
2023/02/01 17:07:58;;;;;;;32.00;6.13;;;9.00;99.90;;;;;;6341027;22;38341;-82
2023/02/01 17:10:30;;;;;;;32.07;5.07;;;8.90;99.90;;;;;;6340431;22;38240;-82
2023/02/01 17:12:57;;;;;;;30.95;4.85;;;8.90;99.90;;;;;;6342510;22;36312;-82
2023/02/01 17:19:22;;;;;;;27.63;4.43;;;8.90;99.90;;;;;;6340288;22;50505;-81
2023/02/01 17:21:52;;;;;;;24.40;5.05;;;8.90;99.90;;;;;;6306286;22;48584;-82
2023/02/01 17:24:21;;;;;;;23.10;4.33;;;9.00;99.90;;;;;;6339826;22;36733;-81
2023/02/01 17:26:54;;;;;;;27.23;5.17;;;9.00;99.90;;;;;;6340548;22;40351;-82
2023/02/01 17:29:25;;;;;;;35.42;4.57;;;9.10;99.90;;;;;;6338773;22;37792;-81
2023/02/01 17:31:53;;;;;;;28.70;5.00;;;9.20;99.90;;;;;;6339696;22;37868;-82
2023/02/01 17:34:21;;;;;;;26.20;5.07;;;9.10;99.90;;;;;;6335877;22;37407;-82
2023/02/01 17:36:56;;;;;;;20.30;4.10;;;9.20;99.90;;;;;;6340856;22;39322;-80
2023/02/01 17:42:34;;;;;;;24.50;4.60;;;9.20;99.90;;;;;;6340430;22;40992;-82
2023/02/01 17:45:11;;;;;;;;;;;9.30;99.90;;;;;;6342479;22;39480;-81
2023/02/01 17:47:38;;;;;;;26.80;4.67;;;9.30;99.90;;;;;;6341042;22;48519;-82
2023/02/01 17:50:29;;;;;;;25.37;4.37;;;9.30;99.90;;;;;;6340853;22;40325;-82
2023/02/01 17:52:56;;;;;;;23.33;4.17;;;9.30;99.90;;;;;;6362600;22;47458;-81
2023/02/01 17:55:24;;;;;;;29.13;4.67;;;9.30;99.90;;;;;;6340855;22;36490;-81
2023/02/01 17:57:58;;;;;;;17.47;4.37;;;9.30;99.90;;;;;;6340409;22;40899;-82
2023/02/01 18:00:26;;;;;;;31.60;5.37;;;9.30;99.90;;;;;;6339558;22;38555;-81
2023/02/01 18:03:31;;;;;;;23.03;4.40;;;9.30;99.90;;;;;;6339192;22;38243;-82
2023/02/01 18:06:02;;;;;;;32.90;5.10;;;9.30;99.90;;;;;;6328180;22;50330;-81
2023/02/01 18:08:32;;;;;;;27.40;4.23;;;9.30;99.90;;;;;;6335923;22;48074;-82
2023/02/01 18:11:13;;;;;;;22.33;4.63;;;9.30;99.90;;;;;;6338593;22;37821;-80
2023/02/01 18:13:42;;;;;;;33.10;6.03;;;9.30;99.90;;;;;;6340504;22;48214;-81
2023/02/01 18:16:30;;;;;;;23.90;3.70;;;9.30;99.90;;;;;;6336856;22;36929;-82
2023/02/01 18:19:03;;;;;;;23.47;4.17;;;9.30;99.90;;;;;;6339673;22;40039;-81
2023/02/01 18:22:05;;;;;;;24.50;5.03;;;9.30;99.90;;;;;;6338815;22;48969;-81
2023/02/01 18:24:33;;;;;;;35.03;4.87;;;9.40;99.90;;;;;;6365200;22;48218;-81
2023/02/01 18:27:00;;;;;;;27.10;6.40;;;9.40;99.90;;;;;;6326772;22;37320;-80
2023/02/01 18:29:26;;;;;;;30.47;4.90;;;9.40;99.90;;;;;;6340258;22;46048;-81
2023/02/01 18:31:57;;;;;;;33.20;5.27;;;9.30;99.90;;;;;;6339971;22;38598;-80
2023/02/01 18:34:24;;;;;;;26.17;4.83;;;9.30;99.90;;;;;;6340174;22;37885;-81
2023/02/01 18:37:08;;;;;;;29.30;5.40;;;9.40;99.90;;;;;;6340477;22;37473;-81
2023/02/01 18:39:36;;;;;;;28.60;5.47;;;9.40;99.90;;;;;;6353319;22;48280;-81
2023/02/01 18:42:30;;;;;;;31.03;4.90;;;9.30;99.90;;;;;;6340521;22;39767;-81
2023/02/01 18:44:56;;;;;;;31.73;5.07;;;9.30;99.90;;;;;;6333701;22;38348;-80
2023/02/01 18:47:30;;;;;;;30.27;5.07;;;9.30;99.90;;;;;;6337571;22;36840;-79
2023/02/01 18:50:03;;;;;;;30.50;5.93;;;9.30;99.90;;;;;;6339458;22;38764;-80
2023/02/01 18:55:06;;;;;;;25.13;4.93;;;9.30;99.90;;;;;;6298367;22;20060;-80
2023/02/01 18:57:33;;;;;;;27.40;4.47;;;9.40;99.90;;;;;;6340719;22;38844;-82
2023/02/01 18:59:59;;;;;;;37.37;5.60;;;9.40;99.90;;;;;;6337851;22;38968;-80
2023/02/01 19:02:25;;;;;;;28.83;5.30;;;9.40;99.90;;;;;;6338880;22;38136;-81
2023/02/01 19:05:01;;;;;;;29.57;4.97;;;9.40;99.90;;;;;;6339366;22;37648;-80
2023/02/01 19:07:28;;;;;;;27.90;4.70;;;9.30;99.90;;;;;;6336235;22;38691;-80
2023/02/01 19:09:54;;;;;;;21.87;4.70;;;9.40;99.90;;;;;;6332682;22;38808;-80
2023/02/01 19:12:20;;;;;;;28.37;4.50;;;9.40;99.90;;;;;;6324966;22;38471;-82
2023/02/01 19:14:46;;;;;;;24.13;4.10;;;9.40;99.90;;;;;;6321293;22;36436;-82
2023/02/01 19:17:12;;;;;;;26.50;4.23;;;9.40;99.90;;;;;;6323780;22;35677;-82
2023/02/01 19:19:38;;;;;;;23.07;5.57;;;9.30;99.90;;;;;;6325569;22;37125;-83
2023/02/01 19:22:04;;;;;;;23.33;4.67;;;9.40;99.90;;;;;;6327479;22;37136;-82
2023/02/01 19:24:35;;;;;;;27.10;4.47;;;9.30;99.90;;;;;;6318940;22;38164;-82
2023/02/01 19:27:02;;;;;;;29.73;5.03;;;9.40;99.90;;;;;;6329415;22;37175;-82
2023/02/01 19:29:28;;;;;;;28.43;4.93;;;9.40;99.90;;;;;;6331543;22;49419;-82
2023/02/01 19:31:55;;;;;;;32.83;4.77;;;9.30;99.90;;;;;;6335206;22;38664;-82
2023/02/01 19:34:21;;;;;;;22.70;4.73;;;9.30;99.90;;;;;;6335520;22;36440;-82
2023/02/01 19:36:48;;;;;;;29.00;4.90;;;9.30;99.90;;;;;;6321236;22;36944;-81
2023/02/01 19:39:20;;;;;;;30.27;5.50;;;9.30;99.90;;;;;;6318319;22;38187;-82
2023/02/01 19:41:52;;;;;;;31.67;5.13;;;9.30;99.90;;;;;;6338538;22;39844;-82
2023/02/01 19:44:49;;;;;;;27.90;4.87;;;9.20;99.90;;;;;;6315461;22;36456;-83
2023/02/01 19:47:28;;;;;;;31.27;6.00;;;9.20;99.90;;;;;;6338421;22;38163;-82
2023/02/01 19:49:55;;;;;;;28.70;5.43;;;9.20;99.90;;;;;;6363699;22;38853;-81
2023/02/01 19:52:23;;;;;;;33.20;5.53;;;9.20;99.90;;;;;;6395824;22;38450;-81
2023/02/01 19:54:49;;;;;;;36.83;4.73;;;9.20;99.90;;;;;;6365830;22;36405;-81
2023/02/01 19:57:15;;;;;;;28.70;4.87;;;9.20;99.90;;;;;;6394344;22;37148;-80
2023/02/01 20:00:05;;;;;;;34.23;5.83;;;9.20;99.90;;;;;;6402368;22;40389;-81
2023/02/01 20:02:33;;;;;;;24.97;4.70;;;9.20;99.90;;;;;;6402841;22;40363;-82
2023/02/01 20:04:59;;;;;;;35.53;5.13;;;9.10;99.90;;;;;;6353376;22;37692;-83
2023/02/01 20:13:26;;;;;;;23.17;4.70;;;9.10;99.90;;;;;;6349733;22;20154;-82
2023/02/01 20:16:16;;;;;;;35.77;4.93;;;9.10;99.90;;;;;;6329383;22;48026;-82
2023/02/01 20:18:44;;;;;;;27.50;4.50;;;9.10;99.90;;;;;;6299877;22;50979;-81
2023/02/01 20:21:10;;;;;;;33.47;5.40;;;9.10;99.90;;;;;;6337908;22;39990;-82
2023/02/01 20:23:40;;;;;;;28.03;4.63;;;9.10;99.90;;;;;;6308451;22;37539;-83
2023/02/01 20:26:10;;;;;;;33.50;5.20;;;9.10;99.90;;;;;;6296257;22;37603;-83
2023/02/01 20:28:37;;;;;;;30.50;5.67;;;9.20;99.90;;;;;;6259070;22;37248;-82
2023/02/01 20:31:27;;;;;;;30.67;5.60;;;9.20;99.90;;;;;;6321130;22;40113;-82
2023/02/01 20:33:55;;;;;;;19.00;4.07;;;9.20;99.90;;;;;;6341871;22;49373;-82
2023/02/01 20:36:22;;;;;;;36.47;5.50;;;9.30;99.90;;;;;;6270861;22;36260;-82
2023/02/01 20:38:48;;;;;;;34.73;5.37;;;9.20;99.90;;;;;;6304450;22;38515;-82
2023/02/01 20:41:14;;;;;;;25.07;4.40;;;9.20;99.90;;;;;;6337664;22;38995;-82
2023/02/01 20:43:41;;;;;;;28.00;5.23;;;9.30;99.90;;;;;;6321625;22;40393;-81
2023/02/01 20:46:08;;;;;;;30.00;5.43;;;9.30;99.90;;;;;;6360432;22;40586;-81
2023/02/01 20:48:35;;;;;;;23.17;4.23;;;9.40;99.90;;;;;;6340183;22;38556;-81
2023/02/01 20:51:02;;;;;;;34.87;5.50;;;9.40;99.90;;;;;;6336666;22;39106;-80
2023/02/01 20:56:15;;;;;;;24.53;4.83;;;9.40;99.90;;;;;;6362852;22;20012;-80
2023/02/01 20:58:42;;;;;;;27.37;5.60;;;9.40;99.90;;;;;;6358771;22;36195;-82
2023/02/01 21:01:10;;;;;;;25.03;5.13;;;9.40;99.90;;;;;;6330607;22;37816;-83
2023/02/01 21:03:37;;;;;;;30.53;4.57;;;9.40;99.90;;;;;;6332277;22;36947;-82
2023/02/01 21:06:04;;;;;;;37.97;7.27;;;9.50;99.90;;;;;;6360161;22;37764;-82
2023/02/01 21:08:31;;;;;;;24.97;4.53;;;9.50;99.90;;;;;;6331120;22;36244;-82
2023/02/01 21:10:58;;;;;;;24.90;4.53;;;9.50;99.90;;;;;;6360849;22;38982;-82
2023/02/01 21:13:29;;;;;;;36.83;5.27;;;9.50;99.90;;;;;;6362189;22;38064;-83
2023/02/01 21:16:08;;;;;;;24.97;4.17;;;9.50;99.90;;;;;;6333908;22;37114;-83
2023/02/01 21:18:34;;;;;;;31.33;5.00;;;9.50;99.90;;;;;;6328308;22;48400;-82
2023/02/01 21:21:13;;;;;;;35.67;5.20;;;9.50;99.90;;;;;;6339975;22;37597;-83
2023/02/01 21:26:21;;;;;;;28.90;4.80;;;9.50;99.90;;;;;;6346673;22;20008;-81
2023/02/01 21:32:09;;;;;;;28.37;5.67;;;9.40;99.90;;;;;;6356312;22;20047;-82
2023/02/01 21:37:11;;;;;;;29.10;4.97;;;9.30;99.90;;;;;;6316090;22;20004;-81
2023/02/01 21:48:42;;;;;;;30.80;4.38;;;9.30;99.90;;;;;;6319656;22;20024;-83
2023/02/01 21:59:51;;;;;;;26.60;4.33;;;9.00;99.90;;;;;;6342722;22;20013;-83
2023/02/01 22:02:18;;;;;;;31.27;4.83;;;9.00;99.90;;;;;;6355913;22;37924;-79
2023/02/01 22:04:44;;;;;;;24.57;5.00;;;9.10;99.90;;;;;;6370030;22;37422;-83
2023/02/01 22:07:11;;;;;;;23.53;4.50;;;9.20;99.90;;;;;;6395151;22;37362;-82
2023/02/01 22:09:43;;;;;;;21.27;4.23;;;9.20;99.90;;;;;;6374432;22;37798;-82
2023/02/01 22:12:13;;;;;;;25.55;3.80;;;9.20;99.90;;;;;;6368885;22;36389;-82
2023/02/01 22:14:43;;;;;;;26.07;4.17;;;9.30;99.90;;;;;;6366272;22;38097;-82
2023/02/01 22:17:11;;;;;;;32.43;4.83;;;9.20;99.90;;;;;;6362539;22;37395;-80
2023/02/01 22:19:38;;;;;;;26.03;3.83;;;9.20;99.90;;;;;;6365726;22;37004;-82
2023/02/01 22:22:05;;;;;;;25.60;4.23;;;9.00;99.90;;;;;;6394395;22;37564;-82
2023/02/01 22:24:32;;;;;;;25.73;4.10;;;9.00;99.90;;;;;;6389658;22;37849;-82
2023/02/01 22:26:58;;;;;;;34.53;4.83;;;8.90;99.90;;;;;;6393456;22;37702;-83
2023/02/01 22:29:25;;;;;;;28.37;5.13;;;8.90;99.90;;;;;;6366684;22;37654;-80
2023/02/01 22:32:03;;;;;;;35.47;6.00;;;8.80;99.90;;;;;;6314473;22;36134;-83
2023/02/01 22:34:31;;;;;;;39.83;5.43;;;8.80;99.90;;;;;;6296795;22;50184;-80
2023/02/01 22:36:58;;;;;;;27.37;4.70;;;8.80;99.90;;;;;;6370182;22;39140;-81
2023/02/01 22:42:51;;;;;;;31.15;4.85;;;8.80;99.90;;;;;;6334088;22;20030;-81
2023/02/01 22:45:20;;;;;;;24.53;4.40;;;8.80;99.90;;;;;;6341559;22;39308;-80
2023/02/01 22:47:47;;;;;;;31.90;5.17;;;8.90;99.90;;;;;;6342254;22;37929;-81
2023/02/01 22:50:14;;;;;;;27.40;4.77;;;8.90;99.90;;;;;;6323342;22;37216;-81
2023/02/01 22:52:48;;;;;;;28.23;5.13;;;8.80;99.90;;;;;;6362032;22;37286;-81
2023/02/01 22:55:25;;;;;;;35.30;4.70;;;8.80;99.90;;;;;;6340707;22;38338;-81
2023/02/01 22:58:02;;;;;;;29.13;4.70;;;8.80;99.90;;;;;;6345432;22;38492;-82
2023/02/01 23:00:40;;;;;;;26.40;4.97;;;8.80;99.90;;;;;;6343059;22;48773;-81
2023/02/01 23:03:07;;;;;;;25.23;4.23;;;8.80;99.90;;;;;;6343416;22;37849;-81
2023/02/01 23:05:43;;;;;;;23.03;3.43;;;8.90;99.90;;;;;;6373132;22;40399;-82
2023/02/01 23:08:09;;;;;;;25.20;3.67;;;8.90;99.90;;;;;;6358077;22;39946;-79
2023/02/01 23:10:36;;;;;;;21.97;3.93;;;8.90;99.90;;;;;;6359861;22;37812;-81
2023/02/01 23:13:02;;;;;;;21.70;4.20;;;8.90;99.90;;;;;;6324969;22;38799;-82
2023/02/01 23:15:38;;;;;;;23.30;4.07;;;9.00;99.90;;;;;;6370404;22;38078;-82
2023/02/01 23:18:28;;;;;;;26.47;4.57;;;9.10;99.90;;;;;;6337244;22;38552;-82
2023/02/01 23:21:15;;;;;;;24.77;4.33;;;9.00;99.90;;;;;;6344668;22;37990;-82
2023/02/01 23:23:56;;;;;;;26.33;5.63;;;9.00;99.90;;;;;;6369015;22;49589;-82
2023/02/01 23:29:16;;;;;;;25.47;4.37;;;9.00;99.90;;;;;;6345844;22;20003;-81
2023/02/01 23:31:43;;;;;;;25.07;4.13;;;9.00;99.90;;;;;;6316587;22;47573;-82
2023/02/01 23:34:10;;;;;;;27.83;4.57;;;9.00;99.90;;;;;;6281108;22;38552;-82
2023/02/01 23:36:49;;;;;;;32.10;4.43;;;9.00;99.90;;;;;;6379620;22;39259;-81
2023/02/01 23:39:16;;;;;;;21.97;4.67;;;8.90;99.90;;;;;;6371003;22;48386;-81
2023/02/01 23:41:55;;;;;;;26.00;4.33;;;8.90;99.90;;;;;;6372787;22;36817;-82
2023/02/01 23:44:22;;;;;;;30.40;3.90;;;8.90;99.90;;;;;;6265836;22;37098;-82
2023/02/01 23:46:53;;;;;;;24.87;5.73;;;8.90;99.90;;;;;;6319467;22;39104;-82
2023/02/01 23:52:22;;;;;;;39.40;6.37;;;8.90;99.90;;;;;;6378529;22;20007;-81
2023/02/01 23:54:48;;;;;;;27.10;4.37;;;9.00;99.90;;;;;;6328599;22;37231;-82
2023/02/01 23:57:14;;;;;;;26.03;4.93;;;9.00;99.90;;;;;;6297166;22;38603;-79
2023/02/01 23:59:41;;;;;;;31.20;5.27;;;9.00;99.90;;;;;;6311579;22;38386;-82
